Terminal Aerodrome Forecast
Issued by NWS

Home | Current Version | Previous Version | Text Only | Print | Product List | Glossary On
Versions: 1 2 3 4 5 6 7 8 9 10 11 12 13 14
000
FTUS42 TJSJ 041739
TAFJBQ
TAF
TJBQ 041739Z 0418/0518 08009KT P6SM VCTS SCT023CB SCT035 BKN040
      TEMPO 0418/0420 VRB13G21KT 3SM TSRA BKN022CB
     FM042330 VRB04KT P6SM FEW025 SCT070
     FM051400 07013KT P6SM SCT025 SCT040
      AMD NOT SKED 0502/0511=

USA.gov is the U.S. government's official web portal to all federal, state and local government web resources and services.